This is the latest recevied weather packets stored in our database for station/object M0TJX-1. If no packets are shown the sender has not sent any weather packets the latest 10 day(s).
| Time | Temp. | Humidity | Pressure | Rain* | Wind** | Luminosity | Snow |
|---|---|---|---|---|---|---|---|
| 1787561797 | 18.33° C | 67% | 1020.6 hPa | 0 mm | - | - | - |
| 1787561727 | 18.33° C | 67% | 1020.6 hPa | 0 mm | - | - | - |
| 1787559927 | 16.67° C | 74% | 1020.7 hPa | 0 mm | - | - | - |
| 1787559027 | 15.56° C | 77% | 1020.8 hPa | 0 mm | - | - | - |
| 1787558128 | 15° C | 79% | 1020.9 hPa | 0 mm | - | - | - |
| 1787557228 | 14.44° C | 81% | 1020.9 hPa | 0 mm | - | - | - |
| 1787556327 | 13.89° C | 82% | 1021 hPa | 0 mm | - | - | - |
| 1787555428 | 13.33° C | 84% | 1021.2 hPa | 0 mm | - | - | - |
| 1787554527 | 13.33° C | 86% | 1021.2 hPa | 0 mm | - | - | - |
| 1787553627 | 12.78° C | 87% | 1021.1 hPa | 0 mm | - | - | - |
| 1787552728 | 12.22° C | 88% | 1021.3 hPa | 0 mm | - | - | - |
| 1787551828 | 12.22° C | 88% | 1021.4 hPa | 0 mm | - | - | - |
| 1787550028 | 12.22° C | 88% | 1021.6 hPa | 0 mm | - | - | - |
| 1787549128 | 12.22° C | 87% | 1021.7 hPa | 0 mm | - | - | - |
| 1787548228 | 12.22° C | 87% | 1021.6 hPa | 0 mm | - | - | - |
| 1787547328 | 12.22° C | 86% | 1021.7 hPa | 0 mm | - | - | - |
| 1787546428 | 12.22° C | 86% | 1021.8 hPa | 0 mm | - | - | - |
| 1787545528 | 12.22° C | 86% | 1022.1 hPa | 0 mm | - | - | - |
| 1787544628 | 12.78° C | 85% | 1022.2 hPa | 0 mm | - | - | - |
| 1787543728 | 12.78° C | 84% | 1022.1 hPa | 0 mm | - | - | - |
| 1787542828 | 12.78° C | 84% | 1022.2 hPa | 0 mm | - | - | - |
| 1787541928 | 12.78° C | 84% | 1022.3 hPa | 0 mm | - | - | - |
| 1787541028 | 13.33° C | 83% | 1022.3 hPa | 0 mm | - | - | - |
| 1787540128 | 13.33° C | 83% | 1022.3 hPa | 0 mm | - | - | - |
| 1787539228 | 13.33° C | 82% | 1022.3 hPa | 0 mm | - | - | - |
* Rain latest hour (hover to see other rain measurements)
** Current wind speed in m/s (hover to see current wind gust speed)